MSC Monica — 3FSU7 — position and weather

sailwx.info

Track history (hours):
 
Tides and Currents Weather Stations Pressure Air Temp Water Temp Dewpoint Dewpoint Depression Visibility Wind Speed Wind Dir Waves Ship Positions

MSC Monica

Last reported at 2018-Jun-17 00:07 UTC. Time now 2018-Jun-20 04:01 UTC.
Position N 46°50' W 071°10'.

Length 242 m; draft 8.9 m.

Type: Cargo ship. MMSI: 351607000.

Date/timePositionNaut miles runAvg speedWind from/ knotsBaromVisibWave heightAir tempDewpointWater temp
2018-Jun-17 00:07N 46°50' W 071°10'111.4
2018-Jun-17 00:00N 46°49' W 071°11'9013.7
2018-Jun-16 17:26N 46°04' W 073°04'511.2
2018-Jun-16 17:00N 46°02' W 073°10'714.1
2018-Jun-16 16:30N 45°55' W 073°13'713.9
2018-Jun-16 16:00N 45°49' W 073°19'712.7
2018-Jun-16 15:28N 45°44' W 073°25'4 0.1
2018-Jun-14 17:50N 45°41' W 073°27'310.1
2018-Jun-14 17:29N 45°44' W 073°25'510.3
2018-Jun-14 17:00N 45°48' W 073°20'510.5
2018-Jun-14 16:30N 45°52' W 073°16'510.1
2018-Jun-14 16:00N 45°56' W 073°13'612.0
2018-Jun-14 15:30N 46°02' W 073°10'510.4
2018-Jun-14 15:00N 46°04' W 073°03'8911.3
2018-Jun-14 07:08N 46°49' W 071°12'1 7.1
2018-Jun-14 06:59N 46°50' W 071°11'  
2018-Jun-10 10:44N 40°26' W 073°45'0 0.8
2018-Jun-10 10:24N 40°26' W 073°45'3 8.4
2018-Jun-10 10:00N 40°26' W 073°49'713.2
2018-Jun-10 09:31N 40°30' W 073°57'612.5
2018-Jun-10 09:00N 40°35' W 074°02'5 9.9
2018-Jun-10 08:30N 40°39' W 074°05'3 6.4
2018-Jun-10 08:00N 40°39' W 074°09'2 4.2
2018-Jun-10 07:30N 40°41' W 074°09'0 0.1
2018-Jun-10 07:00N 40°41' W 074°09'0 0.0
2018-Jun-10 06:30N 40°41' W 074°09'0 0.0
2018-Jun-10 05:57N 40°41' W 074°09'0 0.0
2018-Jun-10 05:24N 40°41' W 074°09'0 0.0
2018-Jun-10 05:00N 40°41' W 074°09'0 0.0
2018-Jun-10 04:30N 40°41' W 074°09'0 0.0
2018-Jun-10 04:00N 40°41' W 074°09'0 0.0
2018-Jun-10 03:27N 40°41' W 074°09'0 0.0
2018-Jun-10 02:57N 40°41' W 074°09'0 0.0
2018-Jun-10 02:30N 40°41' W 074°09'0 0.0
2018-Jun-10 02:00N 40°41' W 074°09'0 0.0
2018-Jun-10 01:30N 40°41' W 074°09'0 0.0
2018-Jun-10 01:00N 40°41' W 074°09'0 0.0
2018-Jun-10 00:30N 40°41' W 074°09'0 0.0
2018-Jun-10 00:00N 40°41' W 074°09'0 0.0
2018-Jun-09 23:30N 40°41' W 074°09'0 0.0
2018-Jun-09 22:57N 40°41' W 074°09'0 0.0
2018-Jun-09 22:30N 40°41' W 074°09'0 0.0
2018-Jun-09 22:00N 40°41' W 074°09'0 0.0
2018-Jun-09 21:30N 40°41' W 074°09'0 0.0
2018-Jun-09 21:00N 40°41' W 074°09'0 0.0
2018-Jun-09 20:30N 40°41' W 074°09'0 0.0
2018-Jun-09 20:00N 40°41' W 074°09'0 0.0
2018-Jun-09 19:21N 40°41' W 074°09'0 0.0
2018-Jun-09 18:54N 40°41' W 074°09'0 0.0
2018-Jun-09 18:27N 40°41' W 074°09'0 0.0
2018-Jun-09 18:00N 40°41' W 074°09'0 0.0
2018-Jun-09 17:30N 40°41' W 074°09'0 0.0
2018-Jun-09 17:00N 40°41' W 074°09'0 0.0
2018-Jun-09 16:30N 40°41' W 074°09'0 0.0
2018-Jun-09 16:00N 40°41' W 074°09'0 0.0
2018-Jun-09 15:00N 40°41' W 074°09'0 0.0
2018-Jun-09 14:30N 40°41' W 074°09'0 0.0
2018-Jun-09 14:00N 40°41' W 074°09'1 2.4
2018-Jun-09 13:30N 40°40' W 074°08'2 3.7
2018-Jun-09 13:01N 40°39' W 074°06'3 5.6
2018-Jun-09 12:31N 40°38' W 074°03'510.5
2018-Jun-09 12:00N 40°33' W 074°01'612.7
2018-Jun-09 11:30N 40°29' W 073°54'610.1
2018-Jun-09 10:56N 40°26' W 073°48'1112.5
2018-Jun-09 10:03N 40°15' W 073°46'219.4
2018-Jun-09 09:58N 40°17' W 073°46'2310.0
2018-Jun-09 07:41N 39°54' W 073°43'0 0.1
2018-Jun-09 07:27N 39°54' W 073°43'815.0
2018-Jun-09 06:57N 39°47' W 073°42'4 8.2
2018-Jun-09 06:30N 39°43' W 073°42'3 6.2
2018-Jun-09 06:00N 39°40' W 073°42'1 2.4
2018-Jun-09 05:30N 39°39' W 073°42'710.7
2018-Jun-09 04:52N 39°32' W 073°42'513.1
2018-Jun-09 04:29N 39°27' W 073°42'812.9
2018-Jun-09 03:51N 39°19' W 073°41'512.9
2018-Jun-09 03:26N 39°13' W 073°40'2612.7
2018-Jun-09 01:23N 38°48' W 073°34'1612.0
2018-Jun-09 00:03N 38°33' W 073°41'112.3
2018-Jun-08 23:57N 38°31' W 073°41'612.3
2018-Jun-08 23:29N 38°26' W 073°42'612.6
2018-Jun-08 22:58N 38°19' W 073°43'  
Track history (hours):
 
Tides and Currents Weather Stations Pressure Air Temp Water Temp Dewpoint Dewpoint Depression Visibility Wind Speed Wind Dir Waves Ship Positions

MSC Monica

Last reported at 2018-Jun-17 00:07 UTC. Time now 2018-Jun-20 04:01 UTC.
Position N 46°50' W 071°10'.

Length 242 m; draft 8.9 m.

Type: Cargo ship. MMSI: 351607000.

Date/timePositionNaut miles runAvg speedWind from/ knotsBaromVisibWave heightAir tempDewpointWater temp
2018-Jun-17 00:07N 46°50' W 071°10'111.4
2018-Jun-17 00:00N 46°49' W 071°11'9013.7
2018-Jun-16 17:26N 46°04' W 073°04'511.2
2018-Jun-16 17:00N 46°02' W 073°10'714.1
2018-Jun-16 16:30N 45°55' W 073°13'713.9
2018-Jun-16 16:00N 45°49' W 073°19'712.7
2018-Jun-16 15:28N 45°44' W 073°25'4 0.1
2018-Jun-14 17:50N 45°41' W 073°27'310.1
2018-Jun-14 17:29N 45°44' W 073°25'510.3
2018-Jun-14 17:00N 45°48' W 073°20'510.5
2018-Jun-14 16:30N 45°52' W 073°16'510.1
2018-Jun-14 16:00N 45°56' W 073°13'612.0
2018-Jun-14 15:30N 46°02' W 073°10'510.4
2018-Jun-14 15:00N 46°04' W 073°03'8911.3
2018-Jun-14 07:08N 46°49' W 071°12'1 7.1
2018-Jun-14 06:59N 46°50' W 071°11'  
2018-Jun-10 10:44N 40°26' W 073°45'0 0.8
2018-Jun-10 10:24N 40°26' W 073°45'3 8.4
2018-Jun-10 10:00N 40°26' W 073°49'713.2
2018-Jun-10 09:31N 40°30' W 073°57'612.5
2018-Jun-10 09:00N 40°35' W 074°02'5 9.9
2018-Jun-10 08:30N 40°39' W 074°05'3 6.4
2018-Jun-10 08:00N 40°39' W 074°09'2 4.2
2018-Jun-10 07:30N 40°41' W 074°09'0 0.1
2018-Jun-10 07:00N 40°41' W 074°09'0 0.0
2018-Jun-10 06:30N 40°41' W 074°09'0 0.0
2018-Jun-10 05:57N 40°41' W 074°09'0 0.0
2018-Jun-10 05:24N 40°41' W 074°09'0 0.0
2018-Jun-10 05:00N 40°41' W 074°09'0 0.0
2018-Jun-10 04:30N 40°41' W 074°09'0 0.0
2018-Jun-10 04:00N 40°41' W 074°09'0 0.0
2018-Jun-10 03:27N 40°41' W 074°09'0 0.0
2018-Jun-10 02:57N 40°41' W 074°09'0 0.0
2018-Jun-10 02:30N 40°41' W 074°09'0 0.0
2018-Jun-10 02:00N 40°41' W 074°09'0 0.0
2018-Jun-10 01:30N 40°41' W 074°09'0 0.0
2018-Jun-10 01:00N 40°41' W 074°09'0 0.0
2018-Jun-10 00:30N 40°41' W 074°09'0 0.0
2018-Jun-10 00:00N 40°41' W 074°09'0 0.0
2018-Jun-09 23:30N 40°41' W 074°09'0 0.0
2018-Jun-09 22:57N 40°41' W 074°09'0 0.0
2018-Jun-09 22:30N 40°41' W 074°09'0 0.0
2018-Jun-09 22:00N 40°41' W 074°09'0 0.0
2018-Jun-09 21:30N 40°41' W 074°09'0 0.0
2018-Jun-09 21:00N 40°41' W 074°09'0 0.0
2018-Jun-09 20:30N 40°41' W 074°09'0 0.0
2018-Jun-09 20:00N 40°41' W 074°09'0 0.0
2018-Jun-09 19:21N 40°41' W 074°09'0 0.0
2018-Jun-09 18:54N 40°41' W 074°09'0 0.0
2018-Jun-09 18:27N 40°41' W 074°09'0 0.0
2018-Jun-09 18:00N 40°41' W 074°09'0 0.0
2018-Jun-09 17:30N 40°41' W 074°09'0 0.0
2018-Jun-09 17:00N 40°41' W 074°09'0 0.0
2018-Jun-09 16:30N 40°41' W 074°09'0 0.0
2018-Jun-09 16:00N 40°41' W 074°09'0 0.0
2018-Jun-09 15:00N 40°41' W 074°09'0 0.0
2018-Jun-09 14:30N 40°41' W 074°09'0 0.0
2018-Jun-09 14:00N 40°41' W 074°09'1 2.4
2018-Jun-09 13:30N 40°40' W 074°08'2 3.7
2018-Jun-09 13:01N 40°39' W 074°06'3 5.6
2018-Jun-09 12:31N 40°38' W 074°03'510.5
2018-Jun-09 12:00N 40°33' W 074°01'612.7
2018-Jun-09 11:30N 40°29' W 073°54'610.1
2018-Jun-09 10:56N 40°26' W 073°48'1112.5
2018-Jun-09 10:03N 40°15' W 073°46'219.4
2018-Jun-09 09:58N 40°17' W 073°46'2310.0
2018-Jun-09 07:41N 39°54' W 073°43'0 0.1
2018-Jun-09 07:27N 39°54' W 073°43'815.0
2018-Jun-09 06:57N 39°47' W 073°42'4 8.2
2018-Jun-09 06:30N 39°43' W 073°42'3 6.2
2018-Jun-09 06:00N 39°40' W 073°42'1 2.4
2018-Jun-09 05:30N 39°39' W 073°42'710.7
2018-Jun-09 04:52N 39°32' W 073°42'513.1
2018-Jun-09 04:29N 39°27' W 073°42'812.9
2018-Jun-09 03:51N 39°19' W 073°41'512.9
2018-Jun-09 03:26N 39°13' W 073°40'2612.7
2018-Jun-09 01:23N 38°48' W 073°34'1612.0
2018-Jun-09 00:03N 38°33' W 073°41'112.3
2018-Jun-08 23:57N 38°31' W 073°41'612.3
2018-Jun-08 23:29N 38°26' W 073°42'612.6
2018-Jun-08 22:58N 38°19' W 073°43'  

Dump ship's entire track history